Time;durP1;ratioP1;P1;durP2;ratioP2;P2;SDS_P1;SDS_P2;PMS_P1;PMS_P2;Temp;Humidity;BMP_temperature;BMP_pressure;BME280_temperature;BME280_humidity;BME280_pressure;Samples;Min_cycle;Max_cycle;Signal;HPM_P1;HPM_P2
2023/07/26 00:02:23;;;;;;;0.00;0.00;;;14.40;79.70;;;;;;4970431;28;20447;-66
2023/07/26 00:04:49;;;;;;;0.00;0.00;;;14.40;79.90;;;;;;4970707;28;20078;-66
2023/07/26 00:07:14;;;;;;;0.40;0.40;;;14.40;79.60;;;;;;4970740;28;20043;-66
2023/07/26 00:09:40;;;;;;;0.00;0.00;;;14.40;79.60;;;;;;4970394;28;20045;-66
2023/07/26 00:12:06;;;;;;;0.00;0.00;;;14.40;79.60;;;;;;4970168;28;20042;-66
2023/07/26 00:14:31;;;;;;;0.00;0.00;;;14.40;79.80;;;;;;4969784;28;20150;-66
2023/07/26 00:16:57;;;;;;;0.00;0.00;;;14.30;79.80;;;;;;4970872;28;20046;-67
2023/07/26 00:19:23;;;;;;;0.00;0.00;;;14.30;80.00;;;;;;4970672;28;20074;-66
2023/07/26 00:21:49;;;;;;;0.00;0.00;;;14.30;80.20;;;;;;4968656;28;20042;-66
2023/07/26 00:24:15;;;;;;;0.00;0.00;;;14.30;80.50;;;;;;4970131;28;20519;-66
2023/07/26 00:26:40;;;;;;;0.00;0.00;;;14.20;80.40;;;;;;4970023;28;20070;-66
2023/07/26 00:29:06;;;;;;;0.00;0.00;;;14.20;80.40;;;;;;4969629;28;20241;-66
2023/07/26 00:31:32;;;;;;;0.00;0.00;;;14.20;80.80;;;;;;4970512;28;20049;-66
2023/07/26 00:33:57;;;;;;;0.10;0.10;;;14.10;80.70;;;;;;4969992;28;20043;-65
2023/07/26 00:36:23;;;;;;;0.00;0.00;;;14.10;80.50;;;;;;4970234;28;20058;-66
2023/07/26 00:38:48;;;;;;;0.00;0.00;;;14.10;80.50;;;;;;4970436;28;20047;-66
2023/07/26 00:41:14;;;;;;;0.00;0.00;;;14.10;80.60;;;;;;4970127;28;20045;-67
2023/07/26 00:43:39;;;;;;;0.00;0.00;;;14.10;80.60;;;;;;4953077;28;20447;-67
2023/07/26 00:46:06;;;;;;;0.05;0.05;;;14.10;80.70;;;;;;4970165;28;20060;-67
2023/07/26 00:48:34;;;;;;;0.00;0.00;;;14.10;80.60;;;;;;4970265;28;20050;-66
2023/07/26 00:51:01;;;;;;;0.00;0.00;;;14.00;80.60;;;;;;4969496;28;20073;-66
2023/07/26 00:53:27;;;;;;;0.00;0.00;;;14.10;80.50;;;;;;4968926;28;20082;-66
2023/07/26 00:55:53;;;;;;;0.00;0.00;;;14.10;80.60;;;;;;4972835;28;20049;-66
2023/07/26 00:58:20;;;;;;;0.00;0.00;;;14.10;80.70;;;;;;4973525;28;20483;-66
2023/07/26 01:00:47;;;;;;;0.00;0.00;;;14.00;81.10;;;;;;4973722;28;20537;-66
2023/07/26 01:03:14;;;;;;;0.00;0.00;;;14.00;80.90;;;;;;4973788;28;20193;-66
2023/07/26 01:06:01;;;;;;;0.00;0.00;;;14.00;80.90;;;;;;4973233;28;20046;-66
2023/07/26 01:08:35;;;;;;;0.00;0.00;;;14.10;80.70;;;;;;4973323;28;20075;-66
2023/07/26 01:11:23;;;;;;;0.00;0.00;;;14.00;80.60;;;;;;4973683;28;20046;-66
2023/07/26 01:14:09;;;;;;;0.00;0.00;;;14.00;80.40;;;;;;4973507;28;20038;-65
2023/07/26 01:16:36;;;;;;;0.03;0.03;;;14.00;80.50;;;;;;4973403;28;20415;-67
2023/07/26 01:19:01;;;;;;;0.00;0.00;;;13.90;80.40;;;;;;4973668;28;20046;-66
2023/07/26 01:21:32;;;;;;;0.00;0.00;;;13.90;80.50;;;;;;4973469;28;20041;-66
2023/07/26 01:23:57;;;;;;;0.00;0.00;;;13.90;80.80;;;;;;4973970;28;20043;-66
2023/07/26 01:26:23;;;;;;;0.00;0.00;;;13.90;80.40;;;;;;4973133;28;20047;-66
2023/07/26 01:28:48;;;;;;;0.00;0.00;;;13.90;80.70;;;;;;4973483;28;20039;-66
2023/07/26 01:31:15;;;;;;;0.00;0.00;;;13.80;81.00;;;;;;4972985;28;20043;-66
2023/07/26 01:33:42;;;;;;;0.00;0.00;;;13.80;80.80;;;;;;4972884;28;20046;-66
2023/07/26 01:36:09;;;;;;;0.00;0.00;;;13.80;80.70;;;;;;4973167;28;20055;-66
2023/07/26 01:38:35;;;;;;;0.00;0.00;;;13.80;80.80;;;;;;4973455;28;20061;-66
2023/07/26 01:41:01;;;;;;;0.00;0.00;;;13.80;80.90;;;;;;4972855;28;20047;-66
2023/07/26 01:43:27;;;;;;;0.00;0.00;;;13.80;80.80;;;;;;4971772;28;20138;-65
2023/07/26 01:45:53;;;;;;;0.00;0.00;;;13.80;81.20;;;;;;4973074;28;20543;-67
2023/07/26 01:48:18;;;;;;;0.00;0.00;;;13.80;81.10;;;;;;4973181;28;20047;-66
2023/07/26 01:50:44;;;;;;;0.00;0.00;;;13.80;81.20;;;;;;4972634;28;20150;-66
2023/07/26 01:53:09;;;;;;;0.00;0.00;;;13.90;81.10;;;;;;4972706;28;20049;-66
2023/07/26 01:55:35;;;;;;;0.00;0.00;;;13.80;80.90;;;;;;4972991;28;20051;-66
2023/07/26 01:58:00;;;;;;;0.00;0.00;;;13.90;80.90;;;;;;4972962;28;20114;-66
2023/07/26 02:00:26;;;;;;;0.00;0.00;;;13.90;80.80;;;;;;4972423;28;20101;-65
2023/07/26 02:02:51;;;;;;;0.00;0.00;;;13.90;80.80;;;;;;4972546;28;20101;-66
2023/07/26 02:05:17;;;;;;;0.20;0.20;;;14.00;80.90;;;;;;4972523;28;20057;-66
2023/07/26 02:07:43;;;;;;;0.00;0.00;;;13.90;80.70;;;;;;4971533;28;20130;-66
2023/07/26 02:10:08;;;;;;;0.00;0.00;;;13.90;80.70;;;;;;4972185;28;20046;-66
2023/07/26 02:12:34;;;;;;;0.00;0.00;;;13.90;81.20;;;;;;4972321;28;20129;-65
2023/07/26 02:14:59;;;;;;;0.00;0.00;;;13.90;81.20;;;;;;4972522;28;20511;-65
2023/07/26 02:17:25;;;;;;;0.00;0.00;;;13.90;81.20;;;;;;4972475;28;20055;-66
2023/07/26 02:19:51;;;;;;;0.00;0.00;;;13.90;81.50;;;;;;4972008;28;20043;-65
2023/07/26 02:22:16;;;;;;;0.00;0.00;;;13.90;81.70;;;;;;4972470;28;20121;-65
2023/07/26 02:24:42;;;;;;;0.00;0.00;;;13.90;81.70;;;;;;4972090;28;20503;-65
2023/07/26 02:27:08;;;;;;;0.00;0.00;;;13.90;82.80;;;;;;4972310;28;20050;-65
2023/07/26 02:29:34;;;;;;;0.00;0.00;;;13.80;83.10;;;;;;4971758;28;20050;-65
2023/07/26 02:32:00;;;;;;;0.03;0.03;;;13.90;83.50;;;;;;4972283;28;20050;-65
2023/07/26 02:34:25;;;;;;;3.75;2.30;;;13.90;84.80;;;;;;4972125;28;20376;-64
2023/07/26 02:36:51;;;;;;;0.00;0.00;;;13.80;85.60;;;;;;4971994;28;20508;-64
2023/07/26 02:39:18;;;;;;;0.00;0.00;;;13.80;85.60;;;;;;4971675;28;20491;-65
2023/07/26 02:41:43;;;;;;;0.00;0.00;;;13.70;85.70;;;;;;4972101;28;20548;-64
2023/07/26 02:44:09;;;;;;;0.00;0.00;;;13.70;85.70;;;;;;4972091;28;20090;-64
2023/07/26 02:46:34;;;;;;;0.00;0.00;;;13.60;85.30;;;;;;4971812;28;20066;-64
2023/07/26 02:49:00;;;;;;;0.00;0.00;;;13.60;85.70;;;;;;4971558;28;20039;-64
2023/07/26 02:51:25;;;;;;;0.00;0.00;;;13.60;85.70;;;;;;4971830;28;20046;-64
2023/07/26 02:53:51;;;;;;;0.00;0.00;;;13.50;86.00;;;;;;4971166;28;20097;-64
2023/07/26 02:56:16;;;;;;;0.00;0.00;;;13.60;85.50;;;;;;4970878;28;20097;-64
2023/07/26 02:58:42;;;;;;;0.00;0.00;;;13.60;85.60;;;;;;4970966;28;20043;-64
2023/07/26 03:01:08;;;;;;;0.00;0.00;;;13.60;85.50;;;;;;4970927;28;20050;-65
2023/07/26 03:03:33;;;;;;;0.00;0.00;;;13.50;85.10;;;;;;4971752;28;20047;-64
2023/07/26 03:05:59;;;;;;;0.00;0.00;;;13.50;85.20;;;;;;4971619;28;20290;-63
2023/07/26 03:08:24;;;;;;;0.00;0.00;;;13.50;85.20;;;;;;4971369;28;20046;-63
2023/07/26 03:10:51;;;;;;;0.00;0.00;;;13.50;85.20;;;;;;4970854;28;20054;-63
2023/07/26 03:13:17;;;;;;;0.00;0.00;;;13.50;85.40;;;;;;4971438;28;20057;-64
2023/07/26 03:15:42;;;;;;;0.00;0.00;;;13.40;85.50;;;;;;4970712;28;20051;-63
2023/07/26 03:18:08;;;;;;;0.00;0.00;;;13.50;85.30;;;;;;4970612;28;20054;-63
2023/07/26 03:20:33;;;;;;;0.00;0.00;;;13.50;85.30;;;;;;4970794;28;20066;-64
2023/07/26 03:22:59;;;;;;;0.00;0.00;;;13.50;85.10;;;;;;4971161;28;20731;-63
2023/07/26 03:25:24;;;;;;;0.00;0.00;;;13.50;85.00;;;;;;4971369;28;20039;-63
2023/07/26 03:27:50;;;;;;;0.00;0.00;;;13.60;85.00;;;;;;4970613;28;20069;-63
2023/07/26 03:30:15;;;;;;;0.00;0.00;;;13.60;84.90;;;;;;4970928;28;20121;-63
2023/07/26 03:32:41;;;;;;;0.00;0.00;;;13.60;84.80;;;;;;4971533;28;20109;-63
2023/07/26 03:35:07;;;;;;;0.10;0.10;;;13.60;84.60;;;;;;4970946;28;20047;-64
2023/07/26 03:37:32;;;;;;;0.00;0.00;;;13.60;84.60;;;;;;4970404;28;20047;-63
2023/07/26 03:39:58;;;;;;;0.00;0.00;;;13.70;84.60;;;;;;4970815;28;20039;-64
2023/07/26 03:42:24;;;;;;;0.00;0.00;;;13.60;84.50;;;;;;4970694;28;20496;-63
2023/07/26 03:44:49;;;;;;;0.00;0.00;;;13.70;84.50;;;;;;4970983;28;20825;-63
2023/07/26 03:47:15;;;;;;;0.00;0.00;;;13.60;84.50;;;;;;4970748;28;20522;-63
2023/07/26 03:49:40;;;;;;;0.00;0.00;;;13.70;84.50;;;;;;4970050;28;20452;-64
2023/07/26 03:52:06;;;;;;;0.00;0.00;;;13.70;84.40;;;;;;4970817;28;20130;-64
2023/07/26 03:54:32;;;;;;;0.00;0.00;;;13.70;84.40;;;;;;4970571;28;20042;-63
2023/07/26 03:56:59;;;;;;;0.00;0.00;;;13.70;84.40;;;;;;4969843;28;20410;-64
2023/07/26 03:59:24;;;;;;;0.00;0.00;;;13.70;84.40;;;;;;4970347;28;20053;-64
2023/07/26 04:01:50;;;;;;;0.00;0.00;;;13.70;84.60;;;;;;4969734;28;20638;-63
2023/07/26 04:04:15;;;;;;;0.00;0.00;;;13.80;84.50;;;;;;4970255;28;20047;-63
2023/07/26 04:06:41;;;;;;;0.00;0.00;;;13.70;84.60;;;;;;4970685;28;20499;-64
2023/07/26 04:09:06;;;;;;;0.00;0.00;;;13.70;84.50;;;;;;4970253;28;20086;-63
2023/07/26 04:11:32;;;;;;;0.00;0.00;;;13.70;84.60;;;;;;4970065;28;20035;-63
2023/07/26 04:13:57;;;;;;;0.00;0.00;;;13.80;84.60;;;;;;4970724;28;20046;-64
2023/07/26 04:16:23;;;;;;;0.00;0.00;;;13.80;84.40;;;;;;4969930;28;20042;-63
2023/07/26 04:18:49;;;;;;;0.00;0.00;;;13.80;84.40;;;;;;4969874;28;20058;-63
2023/07/26 04:21:18;;;;;;;0.00;0.00;;;13.80;84.60;;;;;;4970450;28;20459;-64
2023/07/26 04:23:44;;;;;;;0.00;0.00;;;13.80;84.70;;;;;;4970342;28;20074;-64
2023/07/26 04:26:10;;;;;;;0.00;0.00;;;13.80;84.80;;;;;;4968549;28;20054;-63
2023/07/26 04:28:36;;;;;;;0.00;0.00;;;13.90;84.70;;;;;;4969829;28;20043;-64
2023/07/26 04:31:02;;;;;;;0.00;0.00;;;13.90;84.90;;;;;;4968484;28;20130;-64
2023/07/26 04:33:28;;;;;;;0.00;0.00;;;13.90;84.80;;;;;;4969672;28;20506;-64
2023/07/26 04:35:54;;;;;;;0.00;0.00;;;13.90;84.80;;;;;;4970366;28;20085;-64
2023/07/26 04:38:19;;;;;;;0.00;0.00;;;13.80;84.90;;;;;;4970293;28;20039;-64
2023/07/26 04:40:48;;;;;;;0.00;0.00;;;13.90;84.80;;;;;;4969795;28;20074;-64
2023/07/26 04:43:16;;;;;;;0.05;0.05;;;13.80;85.00;;;;;;4970192;28;20102;-64
2023/07/26 04:45:45;;;;;;;0.00;0.00;;;13.80;84.90;;;;;;4970026;28;20086;-63
2023/07/26 04:48:11;;;;;;;0.00;0.00;;;13.90;84.80;;;;;;4969713;28;20050;-64
2023/07/26 04:50:36;;;;;;;0.10;0.10;;;13.80;84.80;;;;;;4969795;28;20495;-64
2023/07/26 04:53:02;;;;;;;0.00;0.00;;;13.80;84.90;;;;;;4969825;28;20089;-64
2023/07/26 04:55:27;;;;;;;0.00;0.00;;;13.70;85.00;;;;;;4969614;28;20045;-64
2023/07/26 04:57:53;;;;;;;0.00;0.00;;;13.80;85.00;;;;;;4969951;28;20071;-64
2023/07/26 05:00:18;;;;;;;0.00;0.00;;;13.80;85.00;;;;;;4968394;28;20416;-64
2023/07/26 05:02:44;;;;;;;0.00;0.00;;;13.80;84.90;;;;;;4969106;28;20492;-64
2023/07/26 05:05:10;;;;;;;0.00;0.00;;;13.90;84.90;;;;;;4969874;28;20070;-64
2023/07/26 05:07:35;;;;;;;0.00;0.00;;;13.80;85.20;;;;;;4969138;28;20089;-64
2023/07/26 05:10:01;;;;;;;0.00;0.00;;;13.90;85.30;;;;;;4968929;28;20038;-64
2023/07/26 05:12:26;;;;;;;0.00;0.00;;;13.90;85.30;;;;;;4967368;28;20415;-64
2023/07/26 05:14:52;;;;;;;0.00;0.00;;;14.00;85.30;;;;;;4968739;28;20054;-64
2023/07/26 05:17:18;;;;;;;0.00;0.00;;;14.00;85.30;;;;;;4969476;28;20039;-64
2023/07/26 05:19:43;;;;;;;0.00;0.00;;;14.00;85.40;;;;;;4969512;28;20372;-65
2023/07/26 05:22:10;;;;;;;0.00;0.00;;;14.00;85.40;;;;;;4968685;28;20043;-66
2023/07/26 05:24:36;;;;;;;0.00;0.00;;;14.00;85.30;;;;;;4969689;28;20122;-66
2023/07/26 05:27:03;;;;;;;0.00;0.00;;;14.00;85.30;;;;;;4969002;28;20126;-66
2023/07/26 05:29:29;;;;;;;0.00;0.00;;;14.10;85.30;;;;;;4969390;28;20049;-64
2023/07/26 05:31:55;;;;;;;0.00;0.00;;;14.10;85.50;;;;;;4968616;28;20130;-63
2023/07/26 05:34:20;;;;;;;0.00;0.00;;;14.10;85.60;;;;;;4969341;28;20431;-64
2023/07/26 05:36:46;;;;;;;0.00;0.00;;;14.10;85.70;;;;;;4968668;28;20047;-65
2023/07/26 05:39:12;;;;;;;0.00;0.00;;;14.20;85.60;;;;;;4969505;28;20042;-64
2023/07/26 05:41:38;;;;;;;0.00;0.00;;;14.20;85.60;;;;;;4971438;28;20047;-65
2023/07/26 05:44:04;;;;;;;0.00;0.00;;;14.20;85.50;;;;;;4973041;28;20407;-64
2023/07/26 05:46:29;;;;;;;0.00;0.00;;;14.20;85.50;;;;;;4973035;28;20145;-65
2023/07/26 05:48:55;;;;;;;0.00;0.00;;;14.20;85.60;;;;;;4971886;28;20047;-64
2023/07/26 05:51:20;;;;;;;0.00;0.00;;;14.30;85.80;;;;;;4972967;28;20066;-63
2023/07/26 05:53:46;;;;;;;0.00;0.00;;;14.20;85.60;;;;;;4972031;28;20055;-65
2023/07/26 05:56:13;;;;;;;0.00;0.00;;;14.30;85.70;;;;;;4972603;28;20042;-66
2023/07/26 05:58:38;;;;;;;0.00;0.00;;;14.20;85.80;;;;;;4971317;28;20580;-68
2023/07/26 06:01:04;;;;;;;0.00;0.00;;;14.40;86.10;;;;;;4972599;28;20061;-67
2023/07/26 06:03:29;;;;;;;0.00;0.00;;;14.30;85.90;;;;;;4971190;28;20043;-67
2023/07/26 06:05:55;;;;;;;0.00;0.00;;;14.30;85.80;;;;;;4970896;28;20356;-67
2023/07/26 06:08:20;;;;;;;0.00;0.00;;;14.30;85.90;;;;;;4970518;28;20074;-67
2023/07/26 06:10:46;;;;;;;0.00;0.00;;;14.30;85.60;;;;;;4970153;28;20050;-67
2023/07/26 06:13:12;;;;;;;0.03;0.03;;;14.30;85.70;;;;;;4971147;28;20043;-67
2023/07/26 06:15:41;;;;;;;0.00;0.00;;;14.20;85.30;;;;;;4971386;28;20626;-66
2023/07/26 06:18:07;;;;;;;0.00;0.00;;;14.20;85.60;;;;;;4970701;28;20050;-67
2023/07/26 06:20:33;;;;;;;0.20;0.20;;;14.10;85.40;;;;;;4969737;28;20066;-67
2023/07/26 06:22:59;;;;;;;0.00;0.00;;;14.00;85.50;;;;;;4971665;28;20125;-67
2023/07/26 06:25:25;;;;;;;0.00;0.00;;;14.00;85.60;;;;;;4971655;28;20081;-67
2023/07/26 06:27:51;;;;;;;0.00;0.00;;;14.10;85.60;;;;;;4970817;28;20390;-66
2023/07/26 06:30:16;;;;;;;0.00;0.00;;;14.10;85.60;;;;;;4971321;28;20046;-67
2023/07/26 06:32:42;;;;;;;0.00;0.00;;;14.10;85.70;;;;;;4970731;28;20625;-67
2023/07/26 06:35:11;;;;;;;0.00;0.00;;;14.10;85.70;;;;;;4971288;28;20069;-67
2023/07/26 06:37:36;;;;;;;0.00;0.00;;;14.20;85.90;;;;;;4971052;28;20719;-67
2023/07/26 06:40:02;;;;;;;0.00;0.00;;;14.20;85.70;;;;;;4971255;28;20077;-67
2023/07/26 06:42:28;;;;;;;0.00;0.00;;;14.30;85.80;;;;;;4971344;28;20073;-68
2023/07/26 06:44:54;;;;;;;0.00;0.00;;;14.30;85.90;;;;;;4970987;28;20109;-67
2023/07/26 06:47:19;;;;;;;0.00;0.00;;;14.40;85.90;;;;;;4970778;28;20047;-67
2023/07/26 06:49:45;;;;;;;0.00;0.00;;;14.40;85.90;;;;;;4970934;28;20046;-67
2023/07/26 06:52:11;;;;;;;0.00;0.00;;;14.50;85.90;;;;;;4969832;28;20035;-67
2023/07/26 06:54:37;;;;;;;0.00;0.00;;;14.50;85.80;;;;;;4950584;28;20102;-67
2023/07/26 06:57:02;;;;;;;0.00;0.00;;;14.60;86.10;;;;;;4969533;28;20069;-67
2023/07/26 06:59:28;;;;;;;0.00;0.00;;;14.60;86.00;;;;;;4970135;28;20539;-64
2023/07/26 07:01:53;;;;;;;0.00;0.00;;;14.60;85.90;;;;;;4971439;28;20054;-65
2023/07/26 07:04:19;;;;;;;0.00;0.00;;;14.70;85.70;;;;;;4971517;28;20528;-65
2023/07/26 07:06:45;;;;;;;0.00;0.00;;;14.70;85.50;;;;;;4966649;28;20051;-65
2023/07/26 07:09:11;;;;;;;0.00;0.00;;;14.70;85.70;;;;;;4951543;29;20050;-65
2023/07/26 07:11:36;;;;;;;0.00;0.00;;;14.70;86.00;;;;;;4951864;28;20047;-65
2023/07/26 07:14:03;;;;;;;0.00;0.00;;;14.80;86.20;;;;;;4951449;28;20130;-65
2023/07/26 07:16:29;;;;;;;0.00;0.00;;;14.80;86.00;;;;;;4970660;28;20055;-64
2023/07/26 07:18:54;;;;;;;0.00;0.00;;;14.80;86.10;;;;;;4970562;28;20042;-65
2023/07/26 07:21:20;;;;;;;0.00;0.00;;;14.80;86.40;;;;;;4969216;28;20121;-65
2023/07/26 07:23:46;;;;;;;0.00;0.00;;;14.90;86.40;;;;;;4970436;28;20074;-65
2023/07/26 07:26:12;;;;;;;0.00;0.00;;;14.90;86.40;;;;;;4970541;28;20039;-65
2023/07/26 07:28:38;;;;;;;0.00;0.00;;;15.00;86.40;;;;;;4969353;28;20721;-65
2023/07/26 07:31:03;;;;;;;0.00;0.00;;;15.00;86.20;;;;;;4971030;28;20046;-65
2023/07/26 07:33:30;;;;;;;0.00;0.00;;;15.10;86.40;;;;;;4970586;28;20089;-65
2023/07/26 07:35:55;;;;;;;0.00;0.00;;;15.10;86.40;;;;;;4971066;28;20061;-65
2023/07/26 07:38:21;;;;;;;0.00;0.00;;;15.10;86.30;;;;;;4970872;28;20051;-65
2023/07/26 07:40:47;;;;;;;0.00;0.00;;;15.20;86.50;;;;;;4970707;28;20043;-65
2023/07/26 07:43:13;;;;;;;0.00;0.00;;;15.20;86.80;;;;;;4970897;28;20733;-65
2023/07/26 07:45:42;;;;;;;0.00;0.00;;;15.30;86.40;;;;;;4971181;28;20059;-65
2023/07/26 07:48:08;;;;;;;0.08;0.08;;;15.30;85.70;;;;;;4970615;28;20089;-64
2023/07/26 07:50:34;;;;;;;0.00;0.00;;;15.30;85.60;;;;;;4970932;28;20047;-65
2023/07/26 07:52:59;;;;;;;0.00;0.00;;;15.30;85.70;;;;;;4970147;28;20049;-65
2023/07/26 07:55:25;;;;;;;0.00;0.00;;;15.30;85.70;;;;;;4969112;28;20836;-65
2023/07/26 07:57:50;;;;;;;0.00;0.00;;;15.30;85.80;;;;;;4969489;28;20054;-65
2023/07/26 08:00:17;;;;;;;0.00;0.00;;;15.20;85.50;;;;;;4968937;28;20039;-65
2023/07/26 08:02:43;;;;;;;0.00;0.00;;;15.30;85.50;;;;;;4968862;28;20046;-65
2023/07/26 08:05:10;;;;;;;0.28;0.28;;;15.40;85.50;;;;;;4968879;28;20438;-65
2023/07/26 08:07:35;;;;;;;0.00;0.00;;;15.60;86.00;;;;;;4967460;28;20062;-65
2023/07/26 08:10:01;;;;;;;0.00;0.00;;;15.60;85.30;;;;;;4969954;28;20495;-65
2023/07/26 08:12:27;;;;;;;0.00;0.00;;;15.70;84.90;;;;;;4970664;28;20082;-65
2023/07/26 08:14:52;;;;;;;0.40;0.40;;;15.80;84.90;;;;;;4969764;28;20590;-65
2023/07/26 08:17:18;;;;;;;0.00;0.00;;;15.90;85.00;;;;;;4969405;28;20055;-65
2023/07/26 08:19:46;;;;;;;0.00;0.00;;;15.90;84.80;;;;;;4969858;28;20500;-65
2023/07/26 08:22:11;;;;;;;0.00;0.00;;;16.00;84.40;;;;;;4970162;28;20173;-65
2023/07/26 08:24:37;;;;;;;0.00;0.00;;;16.00;84.10;;;;;;4969511;28;20555;-65
2023/07/26 08:27:05;;;;;;;0.00;0.00;;;16.00;83.80;;;;;;4969844;28;20500;-70
2023/07/26 08:29:31;;;;;;;0.00;0.00;;;16.00;83.50;;;;;;4969365;28;20165;-72
2023/07/26 08:31:56;;;;;;;0.00;0.00;;;16.00;83.30;;;;;;4968894;28;20514;-64
2023/07/26 08:34:22;;;;;;;0.00;0.00;;;15.90;82.60;;;;;;4969095;28;20039;-64
2023/07/26 08:36:47;;;;;;;0.00;0.00;;;15.80;82.40;;;;;;4966291;28;20038;-65
2023/07/26 08:39:13;;;;;;;0.00;0.00;;;15.70;83.00;;;;;;4968975;28;20035;-66
2023/07/26 08:41:39;;;;;;;0.00;0.00;;;15.60;83.80;;;;;;4968740;28;20131;-64
2023/07/26 08:44:07;;;;;;;0.00;0.00;;;15.60;84.10;;;;;;4968375;28;20582;-64
2023/07/26 08:46:33;;;;;;;0.15;0.15;;;15.50;84.50;;;;;;4967640;28;20058;-64
2023/07/26 08:48:59;;;;;;;0.00;0.00;;;15.50;84.60;;;;;;4968952;28;20772;-64
2023/07/26 08:51:26;;;;;;;0.20;0.20;;;15.50;84.40;;;;;;4968508;28;20475;-65
2023/07/26 08:53:52;;;;;;;0.00;0.00;;;15.40;83.50;;;;;;4966204;28;20089;-65
2023/07/26 08:56:19;;;;;;;2.20;0.80;;;15.40;83.30;;;;;;4963707;28;20059;-65
2023/07/26 08:58:44;;;;;;;0.00;0.00;;;15.40;82.60;;;;;;4967530;28;20073;-65
2023/07/26 09:01:10;;;;;;;0.00;0.00;;;15.40;82.40;;;;;;4966666;28;20504;-65
2023/07/26 09:03:36;;;;;;;0.10;0.10;;;15.40;82.20;;;;;;4969381;28;20050;-65
2023/07/26 09:06:02;;;;;;;0.00;0.00;;;15.50;82.40;;;;;;4968367;28;20051;-65
2023/07/26 09:08:28;;;;;;;0.00;0.00;;;15.50;82.60;;;;;;4967932;28;20050;-64
2023/07/26 09:10:53;;;;;;;0.00;0.00;;;15.60;83.00;;;;;;4969350;28;20496;-68
2023/07/26 09:13:19;;;;;;;0.00;0.00;;;15.60;82.70;;;;;;4969438;28;20492;-68
2023/07/26 09:15:45;;;;;;;0.35;0.35;;;15.60;82.50;;;;;;4970378;28;20177;-67
2023/07/26 09:18:12;;;;;;;0.00;0.00;;;15.60;82.90;;;;;;4973148;28;20062;-71
2023/07/26 09:20:37;;;;;;;0.00;0.00;;;15.60;83.10;;;;;;4971903;28;20141;-68
2023/07/26 09:23:07;;;;;;;0.00;0.00;;;15.50;83.50;;;;;;4972590;28;20074;-68
2023/07/26 09:25:41;;;;;;;0.00;0.00;;;15.50;83.60;;;;;;4972445;28;20066;-66
2023/07/26 09:28:08;;;;;;;0.00;0.00;;;15.40;83.60;;;;;;4972303;28;20100;-67
2023/07/26 09:30:40;;;;;;;0.00;0.00;;;15.40;83.90;;;;;;4971611;28;20472;-67
2023/07/26 09:33:08;;;;;;;0.00;0.00;;;15.50;84.10;;;;;;4977429;28;20042;-67
2023/07/26 09:35:44;;;;;;;0.00;0.00;;;15.60;84.50;;;;;;4968647;28;20113;-68
2023/07/26 09:38:11;;;;;;;0.00;0.00;;;15.70;84.60;;;;;;4971290;28;20042;-67
2023/07/26 09:40:36;;;;;;;0.00;0.00;;;15.90;84.20;;;;;;4972035;28;20058;-67
2023/07/26 09:43:03;;;;;;;0.00;0.00;;;16.00;83.60;;;;;;4972139;28;20395;-68
2023/07/26 09:45:30;;;;;;;0.00;0.00;;;15.90;83.60;;;;;;4973191;28;20395;-67
2023/07/26 09:48:10;;;;;;;1.58;1.48;;;16.00;83.80;;;;;;4972314;28;20047;-68
2023/07/26 09:50:35;;;;;;;0.00;0.00;;;16.00;84.30;;;;;;4972837;28;20840;-67
2023/07/26 09:53:03;;;;;;;0.00;0.00;;;16.00;84.20;;;;;;4971294;28;20058;-67
2023/07/26 09:55:29;;;;;;;0.00;0.00;;;16.00;83.80;;;;;;4972828;28;20070;-65
2023/07/26 09:57:57;;;;;;;0.00;0.00;;;16.00;83.90;;;;;;4971817;28;20130;-65
2023/07/26 10:00:26;;;;;;;0.00;0.00;;;16.10;84.00;;;;;;4972582;28;20055;-65
2023/07/26 10:02:57;;;;;;;0.00;0.00;;;16.20;84.40;;;;;;4972430;28;20054;-65
2023/07/26 10:05:25;;;;;;;0.00;0.00;;;16.40;83.50;;;;;;4972703;28;20066;-66
2023/07/26 10:07:52;;;;;;;0.00;0.00;;;16.50;83.10;;;;;;4972125;28;20443;-66
2023/07/26 10:10:19;;;;;;;0.00;0.00;;;16.50;83.10;;;;;;4971559;28;20538;-65
2023/07/26 10:12:46;;;;;;;0.00;0.00;;;16.50;83.90;;;;;;4970610;28;20051;-65
2023/07/26 10:15:16;;;;;;;0.00;0.00;;;16.60;83.60;;;;;;4971284;28;20143;-64
2023/07/26 10:17:47;;;;;;;0.00;0.00;;;16.70;83.80;;;;;;4970803;28;20051;-66
2023/07/26 10:20:13;;;;;;;0.35;0.35;;;16.80;84.00;;;;;;4971725;28;20065;-66
2023/07/26 10:22:42;;;;;;;0.00;0.00;;;16.80;83.40;;;;;;4970997;28;20053;-66
2023/07/26 10:25:07;;;;;;;0.00;0.00;;;16.80;82.90;;;;;;4972183;28;20458;-66
2023/07/26 10:27:34;;;;;;;0.00;0.00;;;16.90;82.90;;;;;;4970445;28;20078;-65
2023/07/26 10:29:59;;;;;;;0.00;0.00;;;17.10;82.90;;;;;;4971545;28;20511;-66
2023/07/26 10:32:25;;;;;;;0.00;0.00;;;17.10;82.60;;;;;;4970453;28;20061;-65
2023/07/26 10:34:55;;;;;;;0.00;0.00;;;17.00;82.50;;;;;;4971546;28;20038;-65
2023/07/26 10:37:21;;;;;;;0.00;0.00;;;16.80;81.60;;;;;;4969438;28;20058;-65
2023/07/26 10:39:48;;;;;;;0.00;0.00;;;16.60;80.30;;;;;;4971701;28;20042;-66
2023/07/26 10:42:25;;;;;;;0.00;0.00;;;16.40;80.80;;;;;;4970682;28;20035;-64
2023/07/26 10:44:59;;;;;;;0.00;0.00;;;16.30;81.50;;;;;;4963696;28;20133;-65
2023/07/26 10:47:25;;;;;;;0.00;0.00;;;16.40;82.20;;;;;;4971340;28;20546;-66
2023/07/26 10:49:53;;;;;;;0.28;0.28;;;16.50;82.30;;;;;;4971454;28;20046;-66
2023/07/26 10:52:20;;;;;;;0.00;0.00;;;16.60;81.90;;;;;;4969988;28;20110;-66
2023/07/26 10:54:46;;;;;;;0.00;0.00;;;16.80;81.10;;;;;;4970008;28;20054;-65
2023/07/26 10:57:16;;;;;;;0.00;0.00;;;16.90;79.80;;;;;;4970602;28;20105;-65
2023/07/26 10:59:58;;;;;;;0.00;0.00;;;16.90;78.80;;;;;;4969666;28;20738;-64
2023/07/26 11:02:34;;;;;;;0.00;0.00;;;17.10;79.90;;;;;;4969847;28;20042;-65
2023/07/26 11:05:01;;;;;;;0.00;0.00;;;17.30;79.40;;;;;;4970120;28;20047;-66
2023/07/26 11:07:52;;;;;;;0.00;0.00;;;17.40;76.60;;;;;;4970425;28;20069;-66
2023/07/26 11:10:22;;;;;;;0.10;0.10;;;17.60;77.40;;;;;;4970666;28;20114;-65
2023/07/26 11:12:50;;;;;;;0.00;0.00;;;17.70;75.70;;;;;;4970431;28;20471;-65
2023/07/26 11:15:29;;;;;;;0.00;0.00;;;17.90;75.30;;;;;;4969868;28;20066;-66
2023/07/26 11:17:55;;;;;;;0.00;0.00;;;18.00;73.90;;;;;;4969369;28;20043;-66
2023/07/26 11:20:20;;;;;;;0.20;0.20;;;18.10;75.30;;;;;;4970268;28;20062;-66
2023/07/26 11:22:46;;;;;;;0.00;0.00;;;18.10;73.70;;;;;;4969004;28;20122;-65
2023/07/26 11:25:11;;;;;;;0.00;0.00;;;18.10;72.60;;;;;;4970430;28;20058;-65
2023/07/26 11:27:37;;;;;;;0.00;0.00;;;18.10;72.20;;;;;;4969431;28;20130;-65
2023/07/26 11:30:03;;;;;;;0.00;0.00;;;18.00;71.80;;;;;;4970179;28;20043;-65
2023/07/26 11:32:29;;;;;;;0.00;0.00;;;18.10;72.00;;;;;;4970024;28;20043;-65
2023/07/26 11:34:56;;;;;;;0.00;0.00;;;18.20;69.30;;;;;;4969283;28;20047;-65
2023/07/26 11:37:22;;;;;;;0.10;0.10;;;18.30;70.40;;;;;;4969683;28;20085;-65
2023/07/26 11:39:59;;;;;;;0.00;0.00;;;18.50;70.20;;;;;;4970073;28;20042;-65
2023/07/26 11:42:25;;;;;;;0.00;0.00;;;18.40;68.50;;;;;;4970533;28;20059;-65
2023/07/26 11:44:51;;;;;;;0.00;0.00;;;18.50;67.80;;;;;;4969968;28;20055;-65
2023/07/26 11:47:16;;;;;;;0.30;0.30;;;18.50;68.50;;;;;;4969546;28;20038;-66
2023/07/26 11:49:42;;;;;;;0.00;0.00;;;18.50;67.30;;;;;;4970867;28;20043;-65
2023/07/26 11:52:14;;;;;;;0.00;0.00;;;18.60;68.50;;;;;;4968538;28;20082;-65
2023/07/26 11:54:57;;;;;;;0.00;0.00;;;18.80;69.50;;;;;;4967527;28;20055;-65
2023/07/26 11:57:25;;;;;;;0.00;0.00;;;18.90;69.90;;;;;;4967343;28;20034;-65
2023/07/26 11:59:55;;;;;;;0.00;0.00;;;18.90;68.30;;;;;;4968156;28;20431;-65
2023/07/26 12:02:22;;;;;;;0.00;0.00;;;18.80;67.00;;;;;;4959184;28;20122;-65
2023/07/26 12:05:20;;;;;;;0.00;0.00;;;18.80;66.00;;;;;;4967385;28;20053;-65
2023/07/26 12:07:51;;;;;;;0.10;0.10;;;18.90;65.10;;;;;;4968103;28;20125;-65
2023/07/26 12:10:17;;;;;;;0.00;0.00;;;18.90;66.80;;;;;;4969624;28;20051;-64
2023/07/26 12:12:43;;;;;;;0.00;0.00;;;18.80;66.40;;;;;;4969917;28;20077;-64
2023/07/26 12:15:12;;;;;;;0.10;0.10;;;18.70;67.80;;;;;;4969180;28;20469;-66
2023/07/26 12:17:59;;;;;;;0.00;0.00;;;18.70;68.40;;;;;;4969436;28;20043;-65
2023/07/26 12:20:26;;;;;;;0.00;0.00;;;18.70;67.50;;;;;;4968890;28;20062;-67
2023/07/26 12:22:53;;;;;;;0.00;0.00;;;18.90;68.40;;;;;;4969780;28;20089;-66
2023/07/26 12:25:19;;;;;;;0.00;0.00;;;19.00;64.60;;;;;;4970066;28;20066;-66
2023/07/26 12:27:48;;;;;;;0.00;0.00;;;19.10;66.60;;;;;;4969705;28;20104;-66
2023/07/26 12:30:16;;;;;;;0.10;0.10;;;19.30;66.70;;;;;;4969956;28;20734;-66
2023/07/26 12:32:42;;;;;;;0.00;0.00;;;19.30;63.30;;;;;;4969219;28;20042;-66
2023/07/26 12:35:24;;;;;;;0.10;0.10;;;19.50;65.00;;;;;;4967890;28;20049;-66
2023/07/26 12:37:50;;;;;;;0.00;0.00;;;19.50;63.80;;;;;;4969885;28;20058;-66
2023/07/26 12:40:19;;;;;;;0.00;0.00;;;19.50;64.40;;;;;;4969969;28;20062;-66
2023/07/26 12:42:44;;;;;;;0.00;0.00;;;19.40;62.50;;;;;;4969599;28;20571;-67
2023/07/26 12:45:10;;;;;;;0.00;0.00;;;19.30;64.90;;;;;;4968450;28;20173;-67
2023/07/26 12:47:36;;;;;;;0.35;0.35;;;19.30;66.00;;;;;;4968378;28;20051;-66